Earning Calendar for Industry: Real Estate Investment Trusts

Report Date Report Time Symbol Name Sector Market Cap(M) EPS EPS Forecast EPS Surprise Price(ER) Day 1 Price Change% Day 2 Price Change% Two Days Price Change%
2017-09-11 IRET Investors Real Estate Trust Consumer Services 765.64 0.1 0.1 0 6.26 1.29 -6.55 -5.34
2017-08-09 LTC LTC Properties, Inc. Consumer Services 1980 0.79 0.78 1.28 50.22 -0.2 -3.07 -3.26
2017-08-08 CLNS Colony NorthStar, Inc. Consumer Services 7820 0.34 0.37 -8.11 14.46 -0.14 -4.15 -4.28
2017-08-08 RAS RAIT Financial Trust Consumer Services 217.83 -0.04 0.04 -200 1.68 -2.33 -15.48 -17.44
2017-08-08 CHCT Community Healthcare Trust Incorporated Consumer Services 336.41 0.38 0.45 -15.56 24.88 1.26 -1.49 -0.24
2017-08-08 PEI Pennsylvania Real Estate Investment Trust Consumer Services 806.21 0.39 0.37 5.41 11.84 -2.47 -1.1 -3.54
2017-08-07 IVR INVESCO MORTGAGE CAPITAL INC Consumer Services 1890 0.41 0 0 16.85 0.96 0.89 1.86
2017-08-03 CTT CatchMark Timber Trust, Inc. Consumer Services 451.75 -0.06 -0.1 40 11.35 -1.82 3.52 1.64
2017-08-03 RWT Redwood Trust, Inc. Consumer Services 1320 0.35 0.34 2.94 17.31 -0.29 -1.5 -1.79
2017-08-03 SNH Senior Housing Properties Trust Consumer Services 5100 0.44 0.45 -2.22 18.78 -2.19 0.53 -1.67
2017-08-03 NYMT New York Mortgage Trust, Inc. Consumer Services 729.22 0.1 0.14 -28.57 6.18 -1.75 -1.13 -2.86
2017-08-03 PMT PennyMac Mortgage Investment Trust Consumer Services 1200 0.38 0.43 -11.63 17.4 -1.69 -1.49 -3.16
2017-08-03 DOC Physicians Realty Trust Consumer Services 3230 0.24 0.23 4.35 18.42 1.04 -0.71 0.33
2017-08-03 UNIT Uniti Group Inc. Consumer Services 4720 0.6 0.5 20 23.2 -6.03 -5.17 -10.9
2017-08-03 REG Regency Centers Corporation Consumer Services 10900 0.93 0.9 3.33 66.48 0.57 0.38 0.95
2017-08-03 DCT DCT Industrial Trust Inc Consumer Services 5070 0.6 0.6 0 56.44 -0.7 0.6 -0.11
2017-08-03 SNR New Senior Investment Group Inc. Consumer Services 804.98 0.29 0.3 -3.33 9.4 -9.18 -0.43 -9.57
2017-08-03 EPR EPR Properties Consumer Services 5520 1.29 1.24 4.03 70 0.86 -0.4 0.46
2017-08-03 CIO City Office REIT, Inc. Consumer Services 384.87 0.21 0.24 -12.5 12.53 -0.16 0.56 0.4
2017-08-03 SLD Sutherland Asset Management Corporation Consumer Services 468.54 0.34 0.33 3.03 14.65 -0.68 -0.34 -1.02
2017-08-03 ACRE Ares Commercial Real Estate Corporation Consumer Services 385.66 0.24 0.24 0 13.07 1.48 0.31 1.79
2017-08-03 AHT Ashford Hospitality Trust Inc Consumer Services 628.48 0.52 0.55 -5.45 6.05 -2.73 3.47 0.64
2017-08-03 STOR STORE Capital Corporation Consumer Services 3600 0.44 0.42 4.76 23.7 1.28 1.14 2.44
2017-08-03 AMH American Homes 4 Rent Consumer Services 5800 0.26 0.26 0 22.68 -1.82 -0.79 -2.6
2017-08-03 UMH UMH Properties, Inc. Consumer Services 576.2 0.2 0.19 5.26 16.25 0.06 2.03 2.09
2017-08-03 VER VEREIT Inc. Consumer Services 8230 0.18 0.18 0 8.56 2.39 0.47 2.87
2017-08-03 CBL CBL & Associates Properties, Inc. Consumer Services 1450 0.5 0.53 -5.66 8.25 -1.9 4 2.02
2017-08-03 OUT OUTFRONT Media Inc. Consumer Services 3210 0.56 0.55 1.82 21.97 -1.17 2.82 1.62
2017-08-03 PGRE Paramount Group, Inc. Consumer Services 3800 0.23 0.21 9.52 16.5 1.16 -0.12 1.04
2017-08-02 CLDT Chatham Lodging Trust (REIT) Consumer Services 773.48 0.65 0.65 0 20.67 0.39 -2.03 -1.65
2017-08-02 HR Healthcare Realty Trust Incorporated Consumer Services 4140 0.39 0.4 -2.5 32.74 -1.03 1.37 0.33
2017-08-02 INN Summit Hotel Properties, Inc. Consumer Services 1980 0.36 0.36 0 17.45 -3.48 -6.82 -10.07
2017-08-02 DS Drive Shack Inc. Consumer Services 204.54 0.11 -0.04 375 2.88 -8.28 -1.39 -9.55
2017-08-02 MFA MFA Financial, Inc. Consumer Services 3190 0.2 0.2 0 8.68 1.28 0.46 1.75
2017-08-02 NSA National Storage Affiliates Trust Consumer Services 997.98 0.31 0.32 -3.12 22.8 -0.74 -5.04 -5.75
2017-08-02 GGP GGP Inc. Consumer Services 21410 0.4 0.35 14.29 21.91 -4.9 -0.59 -5.47
2017-08-02 HASI Hannon Armstrong Sustainable Infrastructure Capital, Inc. Consumer Services 1190 0.28 0.27 3.7 23.14 -0.26 2.07 1.81
2017-08-02 CIM Chimera Investment Corporation Consumer Services 3600 0.6 0.63 -4.76 18.74 -1.11 -0.16 -1.27
2017-08-02 HIFR InfraREIT, Inc. Consumer Services 875.57 0.2 0.33 -39.39 21.87 -2.8 -0.64 -3.42
2017-08-02 LADR Ladder Capital Corp Consumer Services 1550 0.41 0.31 32.26 13.21 0.3 2.95 3.26
2017-08-02 LSI Life Storage, Inc. Consumer Services 3500 1.33 1.35 -1.48 71.95 -0.59 0.49 -0.11
2017-08-02 AHP Ashford Hospitality Prime, Inc. Consumer Services 311.09 0.5 0.53 -5.66 10.29 -2.37 -5.05 -7.31
2017-08-02 MTGE MTGE Investment Corp. Consumer Services 874.74 0.53 0 0 18.85 0.53 0.27 0.8
2017-08-02 CLI Mack-Cali Realty Corporation Consumer Services 2540 0.6 0.61 -1.64 26.97 2.39 -7.04 -4.82
2017-08-02 CONE CyrusOne Inc Consumer Services 5050 0.77 0.74 4.05 59.34 -1.62 -1.21 -2.82
2017-08-02 CORR CorEnergy Infrastructure Trust, Inc. Consumer Services 416.65 0.94 1.1 -14.55 36.1 0.28 -4.27 -4
2017-08-02 CTRE CareTrust REIT, Inc. Consumer Services 1380 0.3 0.29 3.45 18.07 -0.99 1.55 0.55
2017-08-02 RSO Resource Capital Corp. Consumer Services 312.32 -0.1 -0.09 -11.11 10.34 -0.1 6.19 6.09
2017-08-02 RYN Rayonier Inc. Consumer Services 3710 0.2 0.11 81.82 28.83 -1.64 1.53 -0.14
2017-08-02 JCAP Jernigan Capital, Inc. Consumer Services 234.3 0.5 0.28 78.57 21.1 -0.75 0.9 0.14
2017-08-02 SBRA Sabra Healthcare REIT, Inc. Consumer Services 1530 0.53 0.57 -7.02 23.18 -0.04 1.81 1.77
2017-08-02 DX Dynex Capital, Inc. Consumer Services 347.39 0.19 0 0 7.2 4.05 -0.83 3.18
2017-08-02 MAC Macerich Company (The) Consumer Services 8330 0.98 0.94 4.26 55.55 -4.08 2.47 -1.71
2017-08-02 EQIX Equinix, Inc. Consumer Services 33810 4.59 3.41 34.6 455.47 0.43 -1.34 -0.91
2017-08-02 NLY Annaly Capital Management Inc Consumer Services 12570 0.3 0.3 0 12.15 0.58 0 0.58
2017-08-02 AVB AvalonBay Communities, Inc. Consumer Services 27000 2.09 2.14 -2.34 191.29 -0.44 -1.82 -2.25
2017-08-02 WSR Whitestone REIT Consumer Services 469.61 0.31 0.26 19.23 12.88 -1.15 -0.23 -1.38
2017-08-02 CHSP Chesapeake Lodging Trust Consumer Services 1490 0.65 0.63 3.17 24.88 -0.64 -1.17 -1.8
2017-08-02 FCPT Four Corners Property Trust, Inc. Consumer Services 1540 0.34 0.35 -2.86 24.87 -1.78 -2.33 -4.07
2017-08-02 FRT Federal Realty Investment Trust Consumer Services 9270 1.49 1.46 2.05 132.84 -1.16 0.11 -1.06
2017-08-01 HCP HCP, Inc. Consumer Services 15070 0.48 0.47 2.13 30.25 -4.42 -0.73 -5.12
2017-08-01 REXR Rexford Industrial Realty, Inc. Consumer Services 1860 0.23 0.23 0 29.01 1.72 -0.52 1.19
2017-08-01 RPT Ramco-Gershenson Properties Trust Consumer Services 1070 0.35 0.34 2.94 14.27 1.28 -2.8 -1.56
2017-08-01 AAT American Assets Trust, Inc. Consumer Services 1930 0.49 0.5 -2 40.95 0.84 -1.22 -0.39
2017-08-01 EARN Ellington Residential Mortgage REIT Consumer Services 137.33 0.47 0.47 0 14.82 -0.07 -0.94 -1.01
2017-08-01 NNN National Retail Properties Consumer Services 5900 0.65 0.62 4.84 41.2 3.05 -1.5 1.5
2017-08-01 SKT Tanger Factory Outlet Centers, Inc. Consumer Services 2580 0.59 0.58 1.72 26.5 0.26 -1.96 -1.7
2017-08-01 DEI Douglas Emmett, Inc. Consumer Services 6030 0.47 0.48 -2.08 38.32 0.16 -0.57 -0.42
2017-08-01 STAG Stag Industrial, Inc. Consumer Services 2490 0.41 0.41 0 27.46 0.73 -0.66 0.07
2017-08-01 ARI Apollo Commercial Real Estate Finance Consumer Services 1990 0.46 0.47 -2.13 18.4 2.05 -2.77 -0.78
2017-08-01 BXP Boston Properties, Inc. Consumer Services 19580 1.67 1.62 3.09 121.88 0.8 -0.04 0.76
2017-08-01 RPAI Retail Properties of America, Inc. Consumer Services 3050 0.27 0.26 3.85 13.48 1.89 -0.52 1.36
2017-08-01 IRT Independence Realty Trust, Inc. Consumer Services 697.48 0.19 0.18 5.56 10.16 0.4 -0.39 0
2017-08-01 EXR Extra Space Storage Inc Consumer Services 9670 1.09 1.05 3.81 79.63 0.16 -0.46 -0.3
2017-08-01 NXRT NexPoint Residential Trust, Inc. Consumer Services 543.14 0.34 0.36 -5.56 24.63 -1.83 -3.09 -4.86
2017-08-01 GPT Gramercy Property Trust Consumer Services 4630 0.49 0.51 -3.92 30.31 0.7 -2.44 -1.76
2017-08-01 SPG Simon Property Group, Inc. Consumer Services 50180 2.47 2.44 1.23 164.58 3.35 -2.18 1.1
2017-08-01 AJX Great Ajax Corp. Consumer Services 265.94 0.36 0.45 -20 13.95 0.22 0.5 0.72
2017-07-31 SBAC SBA Communications Corporation Consumer Services 16040 0.19 0.2 -5 134.5 -2.28 2.18 -0.15
2017-07-31 APTS Preferred Apartment Communities, Inc. Consumer Services 501.42 0.37 0.36 2.78 17.27 0.47 3.65 4.13
2017-07-31 VNO Vornado Realty Trust Consumer Services 17890 1.35 1.26 7.14 79.03 0.09 0.62 0.71
2017-07-31 BRX Brixmor Property Group Inc. Consumer Services 5940 0.53 0.51 3.92 19.59 0.46 1.07 1.54
2017-07-31 HTA Healthcare Trust of America, Inc. Consumer Services 6330 0.39 0.39 0 30.59 0.89 -1.31 -0.43
2017-07-31 EDR Education Realty Trust Inc. Consumer Services 2870 0.42 0.42 0 37.55 -3.57 0.8 -2.8
2017-07-31 NRZ New Residential Investment Corp. Consumer Services 5130 1.03 0.55 87.27 17 5.99 0.94 6.98
2017-07-31 ARE Alexandria Real Estate Equities, Inc. Consumer Services 10830 1.5 1.5 0 121.25 0.71 -0.2 0.51
2017-07-28 IRM Iron Mountain Incorporated Consumer Services 9140 0.55 0.52 5.77 35.19 1.24 3.52 4.8
2017-07-28 WY Weyerhaeuser Company Consumer Services 25260 0.28 0.27 3.7 32.99 -3.62 0.09 -3.53
2017-07-28 HCN Welltower Inc. Consumer Services 27340 1.06 1.05 0.95 73.07 0.38 0.44 0.82
2017-07-28 VTR Ventas, Inc. Consumer Services 24500 1.06 1.05 0.95 67.12 -0.43 0.34 -0.09
2017-07-27 COR CoreSite Realty Corporation Consumer Services 3690 1.1 1.08 1.85 106.57 -0.36 1.27 0.9
2017-07-27 CPT Camden Property Trust Consumer Services 7740 1.15 1.13 1.77 87.25 -1.18 2.45 1.25
2017-07-27 CUZ Cousins Properties Incorporated Consumer Services 3740 0.16 0.15 6.67 8.87 0.11 1.47 1.58
2017-07-27 ESS Essex Property Trust, Inc. Consumer Services 17300 2.97 2.92 1.71 264.04 -1.16 0.23 -0.93
2017-07-27 WRI Weingarten Realty Investors Consumer Services 4110 0.61 0.6 1.67 32.58 2.13 0.06 2.19
2017-07-27 OFC Corporate Office Properties Trust Consumer Services 3550 0.49 0.48 2.08 34.1 0.24 -1.2 -0.97
2017-07-27 AIV Apartment Investment and Management Company Consumer Services 6980 0.61 0.6 1.67 44.01 0.3 2.84 3.14
2017-07-27 AMT American Tower Corporation (REIT) Consumer Services 55620 1.68 1.55 8.39 134.86 -2.18 2.55 0.31
2017-07-27 CLPR Clipper Realty Inc. Consumer Services 226.93 0.09 0.1 -10 11.82 -1.01 -2.28 -3.27
2017-07-27 CUBE CubeSmart Consumer Services 4410 0.39 0.38 2.63 23.52 -4.2 2 -2.28
2017-07-27 CXP Columbia Property Trust, Inc. Consumer Services 2700 0.26 0.27 -3.7 22.06 0.23 -1.59 -1.36
2017-07-27 TCO Taubman Centers, Inc. Consumer Services 3610 0.86 0.84 2.38 61.9 1.39 -7.11 -5.81
2017-07-27 GLPI Gaming and Leisure Properties, Inc. Consumer Services 7560 0.78 0.77 1.3 37.61 -1.78 0.11 -1.67
2017-07-27 DLR Digital Realty Trust, Inc. Consumer Services 19100 1.54 1.49 3.36 113.9 0.51 -0.63 -0.12
2017-07-27 FPO First Potomac Realty Trust Consumer Services 649.99 0.23 0.21 9.52 11.09 -0.09 0 -0.09
2017-07-27 PEB Pebblebrook Hotel Trust Consumer Services 2270 0.75 0.67 11.94 32.41 1.5 2.41 3.95
2017-07-26 CMO Capstead Mortgage Corporation Consumer Services 1050 0.14 0.2 -30 9.95 -1 -1.71 -2.69
2017-07-26 ROIC Retail Opportunity Investments Corp. Consumer Services 2270 0.27 0.28 -3.57 20.59 0.93 -0.39 0.54
2017-07-26 KIM Kimco Realty Corporation Consumer Services 8320 0.38 0.38 0 19.93 1.68 5.62 7.4
2017-07-26 DDR DDR Corp. Consumer Services 3440 0.3 0.28 7.14 10.3 3.62 4.76 8.55
2017-07-26 MAA Mid-America Apartment Communities, Inc. Consumer Services 12490 1.48 1.45 2.07 102.24 0.82 0.65 1.47
2017-07-26 SUI Sun Communities, Inc. Consumer Services 7130 0.96 0.94 2.13 88.33 0.62 0.61 1.23
2017-07-26 UDR United Dominion Realty Trust, Inc. Consumer Services 10700 0.47 0.47 0 39.19 2.14 -1.3 0.81
2017-07-26 FR First Industrial Realty Trust, Inc. Consumer Services 3480 0.39 0.39 0 30.08 0.77 1.2 1.98
2017-07-26 PSA Public Storage Consumer Services 36970 2.31 2.56 -9.77 210.06 1.13 -5.61 -4.54
2017-07-26 HST Host Hotels & Resorts, Inc. Consumer Services 13750 0.49 0.46 6.52 17.5 -5.1 6.74 1.3
2017-07-26 KRC Kilroy Realty Corporation Consumer Services 7530 0.87 0.86 1.16 72.09 -0.91 -1.93 -2.82
2017-07-26 ESRT Empire State Realty Trust, Inc. Consumer Services 6710 0.25 0.24 4.17 20.26 1.1 2.42 3.54
2017-07-26 WPG Washington Prime Group Inc. Consumer Services 1530 0.4 0.4 0 9 -0.55 6.44 5.86
2017-07-26 O Realty Income Corporation Consumer Services 15540 0.76 0.76 0 58 1.03 -0.09 0.94
2017-07-26 OHI Omega Healthcare Investors, Inc. Consumer Services 6390 0.87 0.84 3.57 33.45 0.66 -3.59 -2.95
2017-07-26 CYS CYS Investments, Inc. Consumer Services 1340 0.27 0.26 3.85 8.41 0.36 0.12 0.48
2017-07-26 KRG Kite Realty Group Trust Consumer Services 1620 0.54 0.51 5.88 20.22 2.38 5.74 8.25
2017-07-26 DRE Duke Realty Corporation Consumer Services 10330 0.32 0.3 6.67 28.42 2.23 1.16 3.42
2017-07-26 AGNC AGNC Investment Corp. Consumer Services 7230 0.67 0.59 13.56 21.23 0.86 -0.19 0.67
2017-07-25 PSB PS Business Parks, Inc. Consumer Services 3620 1.55 1.52 1.97 129.3 0.45 1.16 1.62
2017-07-25 HT Hersha Hospitality Trust Consumer Services 799.97 0.77 0.79 -2.53 18.15 -0.49 -0.22 -0.71
2017-07-25 EGP EastGroup Properties, Inc. Consumer Services 2930 1.05 1.05 0 84.93 0.65 2.05 2.71
2017-07-25 EQR Equity Residential Consumer Services 24880 0.77 0.77 0 66.07 -0.87 1.95 1.07
2017-07-25 AKR Acadia Realty Trust Consumer Services 2420 0.37 0.36 2.78 28.99 1.29 2.21 3.53
2017-07-25 QTS QTS Realty Trust, Inc. Consumer Services 2520 0.63 0.63 0 53.46 -1.51 0.67 -0.85
2017-07-25 HIW Highwoods Properties, Inc. Consumer Services 5370 0.9 0.85 5.88 50.18 -0.06 2.25 2.19
2017-07-25 SIR Select Income REIT Consumer Services 2220 0.7 0.72 -2.78 23.58 0.3 -0.3 0
2017-07-25 LPT Liberty Property Trust Consumer Services 6250 0.65 0.62 4.84 41.34 -0.39 1.55 1.16
2017-07-25 BXMT Capital Trust, Inc. Consumer Services 3030 0.54 0.58 -6.9 31.7 1.44 -2.93 -1.54
2017-07-24 EQC Equity Commonwealth Consumer Services 3960 0.25 0.27 -7.41 31.69 -0.22 -0.35 -0.57
2017-07-24 ACC American Campus Communities Inc Consumer Services 6460 0.53 0.54 -1.85 48.94 -0.12 -3.66 -3.78
2017-07-24 ADC Agree Realty Corporation Consumer Services 1260 0.67 0.67 0 46.98 -0.57 1.7 1.12
2017-07-24 PCH Potlatch Corporation Consumer Services 1910 0.54 0.3 80 47.55 -1.14 2.1 0.94
2017-07-20 BDN Brandywine Realty Trust Consumer Services 3090 0.34 0.34 0 17.25 -0.58 -1.97 -2.54
2017-07-19 SLG SL Green Realty Corporation Consumer Services 10800 1.78 1.62 9.88 104.91 1.52 -3.59 -2.13
2017-07-19 LHO LaSalle Hotel Properties Consumer Services 3490 0.81 0.82 -1.22 30.75 0.72 -3.64 -2.95
2017-07-19 FPI Farmland Partners Inc. Consumer Services 293.98 0.1 0.05 100 8.95 3.59 3.02 6.71
2017-07-19 CCI Crown Castle International Corporation Consumer Services 37090 1.2 1.15 4.35 98.45 1.87 -1.07 0.79
2017-07-18 PLD Prologis, Inc. Consumer Services 31030 0.84 0.78 7.69 60.25 2.96 -0.22 2.73
2017-07-17 ELS Equity Lifestyle Properties, Inc. Consumer Services 7460 0.81 0.81 0 87.85 3.16 -2.11 0.99
2017-06-28 IRET Investors Real Estate Trust Consumer Services 765.64 0.11 0.1 10 6.27 2.28 -1.12 1.14
2017-06-14 KREF KKR Real Estate Finance Trust Inc. Consumer Services 1160 0.33 0.32 3.13 21.47 -1.06 0.65 -0.41
2017-06-08 UBA Urstadt Biddle Properties Inc. Consumer Services 798.49 0.3 0.29 3.45 19.06 -0.47 1.52 1.04
2017-05-15 CLPR Clipper Realty Inc. Consumer Services 226.93 0.1 0.07 42.86 11.05 3.17 -1.45 1.68
2017-05-11 GMRE Global Medical REIT Inc. Consumer Services 166.55 0.02 0.12 -83.33 9.08 -4.12 3.08 -1.16
2017-05-10 TIER TIER REIT, Inc. Consumer Services 839.4 0.41 0.35 17.14 16.24 -1.64 1.48 -0.18
2017-05-10 HPT Hospitality Properties Trust Consumer Services 4950 0.91 0.91 0 29.84 -3.99 -1.81 -5.73
2017-05-09 LADR Ladder Capital Corp Consumer Services 1550 0.29 0.29 0 14.41 -0.76 0 -0.76
2017-05-09 SOHO Sotherly Hotels Inc. Consumer Services 92.17 0.34 0.26 30.77 6.1 -1.29 6.07 4.69
2017-05-09 MORE Monogram Residential Trust, Inc. Consumer Services 1680 0.09 0.1 -10 9.89 -1.4 -0.61 -1.99
2017-05-09 FCH FelCor Lodging Trust Incorporated Consumer Services 1030 0.09 0.12 -25 7.2 -5.01 2.08 -3.03
2017-05-09 OLP One Liberty Properties, Inc. Consumer Services 441.56 0.51 0 0 23.85 -0.25 -0.63 -0.88
2017-05-09 CHCT Community Healthcare Trust Incorporated Consumer Services 336.41 0.38 0.44 -13.64 24.56 -1.6 4.6 2.92
2017-05-09 CLI Mack-Cali Realty Corporation Consumer Services 2540 0.56 0.57 -1.75 26.77 -1.11 1.16 0.04
2017-05-09 REG Regency Centers Corporation Consumer Services 10900 0.9 0.83 8.43 61.53 0.07 2.28 2.34
2017-05-09 RSO Resource Capital Corp. Consumer Services 312.32 0.11 -0.06 283.33 9.46 -0.84 4.65 3.77
2017-05-09 LXP Lexington Realty Trust Consumer Services 2470 0.23 0.24 -4.17 9.62 -2.43 -0.21 -2.64
2017-05-09 STWD STARWOOD PROPERTY TRUST, INC. Consumer Services 5870 0.5 0.47 6.38 21.81 -1.18 0.37 -0.82
2017-05-09 DEA Easterly Government Properties, Inc. Consumer Services 787.08 0.31 0.31 0 19.47 -1.17 1.23 0.05
2017-05-09 SLD Sutherland Asset Management Corporation Consumer Services 468.54 0.33 0.35 -5.71 15 0.67 -2.67 -2.01
2017-05-09 LAND Gladstone Land Corporation Consumer Services 134.5 0.14 0.15 -6.67 10.79 -1.82 1.39 -0.45
2017-05-09 UMH UMH Properties, Inc. Consumer Services 576.2 0.17 0.2 -15 16.36 0.68 3.79 4.49
2017-05-09 CLDT Chatham Lodging Trust (REIT) Consumer Services 773.48 0.47 0.45 4.44 18.95 -1.25 2.11 0.83
2017-05-09 CLNS Colony NorthStar, Inc. Consumer Services 7820 0.31 0.38 -18.42 12.95 -0.92 0.57 -0.35
2017-05-09 NHI National Health Investors, Inc. Consumer Services 3170 1.25 1.26 -0.79 72.42 0.4 2.07 2.48
2017-05-09 WPC W.P. Carey Inc. Consumer Services 7220 1.25 1.13 10.62 61.33 -1.26 -0.54 -1.79
2017-05-09 CCP Care Capital Properties, Inc. Consumer Services 2190 0.68 0 0 26.46 -5.47 1.17 -4.36
2017-05-09 CHMI Cherry Hill Mortgage Investment Corporation Consumer Services 233.94 0.63 0.48 31.25 16.6 -3.77 4.7 0.75
2017-05-08 SFR Colony Starwood Homes Consumer Services 4360 0.48 0.46 4.35 33.8 -0.21 -1.36 -1.56
2017-05-08 FPI Farmland Partners Inc. Consumer Services 293.98 0.01 0.08 -87.5 10.8 0.56 -1.94 -1.4
2017-05-08 RLJ RLJ Lodging Trust Consumer Services 2600 0.52 0.5 4 21.41 -0.56 -4.81 -5.34
2017-05-08 SBRA Sabra Healthcare REIT, Inc. Consumer Services 1530 0.53 0.59 -10.17 26.49 -0.71 -9.55 -10.19
2017-05-08 LTC LTC Properties, Inc. Consumer Services 1980 0.78 0.78 0 46.94 -0.87 -1.85 -2.7
2017-05-08 MRT MedEquities Realty Trust, Inc. Consumer Services 385.11 0.27 0.26 3.85 11.88 1.28 0.76 2.05
2017-05-08 GNL Global Net Lease, Inc. Consumer Services 1510 0.52 0.6 -13.33 22.54 -0.53 -1.69 -2.21
2017-05-05 CIO City Office REIT, Inc. Consumer Services 384.87 0.26 0.22 18.18 12.36 1.31 0.49 1.8
2017-05-05 DRH Diamondrock Hospitality Company Consumer Services 2300 0.18 0.17 5.88 11.27 1.99 -3.19 -1.27
2017-05-05 HCN Welltower Inc. Consumer Services 27340 1.05 1.05 0 69.8 -0.09 -0.11 -0.2
2017-05-05 ABR Arbor Realty Trust Consumer Services 512.89 0.33 0.19 73.68 8.97 6.66 -1.34 5.23
2017-05-05 SNH Senior Housing Properties Trust Consumer Services 5100 0.46 0.47 -2.13 21.03 0.48 -1.95 -1.48
2017-05-05 DS Drive Shack Inc. Consumer Services 204.54 -0.01 -0.1 90 3.97 -1.24 -1.76 -2.99
2017-05-04 HIFR InfraREIT, Inc. Consumer Services 875.57 0.3 0.33 -9.09 18.74 -0.37 1.12 0.74
2017-05-04 UNIT Uniti Group Inc. Consumer Services 4720 0.65 0.58 12.07 25.28 -4.53 -0.16 -4.68
2017-05-04 DCT DCT Industrial Trust Inc Consumer Services 5070 0.61 0.58 5.17 50.33 0.06 2.34 2.41
2017-05-04 SNR New Senior Investment Group Inc. Consumer Services 804.98 0.29 0.31 -6.45 9.72 -4.33 2.67 -1.77
2017-05-04 AHT Ashford Hospitality Trust Inc Consumer Services 628.48 0.32 0.28 14.29 6.26 -2.95 -1.12 -4.03
2017-05-04 STOR STORE Capital Corporation Consumer Services 3600 0.42 0.41 2.44 21.13 -8.65 -1.14 -9.68
2017-05-04 AMH American Homes 4 Rent Consumer Services 5800 0.26 0.26 0 22.69 -1.05 -1.85 -2.88
2017-05-04 APLE Apple Hospitality REIT, Inc. Consumer Services 4310 0.39 0.4 -2.5 19.33 1.79 -0.88 0.9
2017-05-04 VER VEREIT Inc. Consumer Services 8230 0.19 0.18 5.56 7.67 -6.58 2.35 -4.38
2017-05-04 CDR Cedar Realty Trust, Inc. Consumer Services 449.2 0.14 0.13 7.69 5.17 -2.45 2.51 0
2017-05-04 PGRE Paramount Group, Inc. Consumer Services 3800 0.22 0.2 10 16.33 -0.12 1.1 0.98
2017-05-04 PMT PennyMac Mortgage Investment Trust Consumer Services 1200 0.4 0.41 -2.44 17.58 -0.57 -0.46 -1.02
2017-05-04 CPT Camden Property Trust Consumer Services 7740 1.09 1.1 -0.91 81.75 -0.01 0.75 0.73
2017-05-04 CTT CatchMark Timber Trust, Inc. Consumer Services 451.75 -0.05 -0.08 37.5 11.69 0.26 0.51 0.77
2017-05-04 RWT Redwood Trust, Inc. Consumer Services 1320 0.36 0.35 2.86 16.67 -0.36 1.92 1.55
2017-05-04 IVR INVESCO MORTGAGE CAPITAL INC Consumer Services 1890 0.4 0.39 2.56 15.84 -0.94 1.33 0.38
2017-05-04 LAMR Lamar Advertising Company Consumer Services 7030 0.88 0.91 -3.3 69.99 -0.65 2 1.33
2017-05-04 MFA MFA Financial, Inc. Consumer Services 3190 0.2 0.19 5.26 7.86 -4.73 0.89 -3.88
2017-05-04 MPW Medical Properties Trust, Inc. Consumer Services 4820 0.33 0.33 0 12.62 -0.63 2.69 2.05
2017-05-04 BFS Saul Centers, Inc. Consumer Services 1290 0.87 0.86 1.16 59.74 -1.24 -0.55 -1.79
2017-05-03 CXW CoreCivic, Inc. Consumer Services 3430 0.63 0.57 10.53 32.86 -2.43 -0.76 -3.18
2017-05-03 DOC Physicians Realty Trust Consumer Services 3230 0.28 0.3 -6.67 19.03 -1.14 -0.11 -1.25
2017-05-03 LSI Life Storage, Inc. Consumer Services 3500 1.26 1.27 -0.79 75.61 -0.54 -1.47 -2
2017-05-03 AHP Ashford Hospitality Prime, Inc. Consumer Services 311.09 0.46 0.4 15 10.88 1.02 -4.32 -3.34
2017-05-03 MTGE MTGE Investment Corp. Consumer Services 874.74 0.49 0.46 6.52 18 -0.06 -0.56 -0.61
2017-05-03 WMC Western Asset Mortgage Capital Corporation Consumer Services 439.74 0.22 0.31 -29.03 10.41 -0.86 -5.28 -6.1
2017-05-03 CONE CyrusOne Inc Consumer Services 5050 0.72 0.68 5.88 54.1 -1.01 0.5 -0.51
2017-05-03 CORR CorEnergy Infrastructure Trust, Inc. Consumer Services 416.65 1 1.14 -12.28 35.69 -1.98 -3 -4.92
2017-05-03 RYN Rayonier Inc. Consumer Services 3710 0.05 0.09 -44.44 27.75 -2.43 -1.73 -4.11
2017-05-03 JCAP Jernigan Capital, Inc. Consumer Services 234.3 0.12 0.07 71.43 22.59 -1.61 -3.63 -5.18
2017-05-03 MNR Monmouth Real Estate Investment Corporation Consumer Services 1090 0.18 0.19 -5.26 14.73 -1.93 -1.36 -3.26
2017-05-03 NLY Annaly Capital Management Inc Consumer Services 12570 0.31 0.3 3.33 11.53 -1.2 -0.26 -1.46
2017-05-03 WSR Whitestone REIT Consumer Services 469.61 0.32 0.25 28 12.17 -1.7 -5.34 -6.95
2017-05-03 OHI Omega Healthcare Investors, Inc. Consumer Services 6390 0.86 0.84 2.38 32.39 -0.74 -2.19 -2.91
2017-05-03 HHC Howard Hughes Corporation (The) Consumer Services 5030 0.13 0 0 124.63 0.68 -2.47 -1.81
2017-05-03 FCPT Four Corners Property Trust, Inc. Consumer Services 1540 0.35 0.34 2.94 22.95 -1.92 -3.75 -5.6
2017-05-03 FRT Federal Realty Investment Trust Consumer Services 9270 1.45 1.43 1.4 132.3 -1.13 -0.68 -1.8
2017-05-03 CBL CBL & Associates Properties, Inc. Consumer Services 1450 0.52 0.53 -1.89 8.85 -8.76 -4.63 -12.99
2017-05-03 OUT OUTFRONT Media Inc. Consumer Services 3210 0.28 0.28 0 24.5 -6.02 -4.37 -10.13
2017-05-03 RAS RAIT Financial Trust Consumer Services 217.83 0.06 0.02 200 2.66 -14.74 3.38 -11.86
2017-05-03 HR Healthcare Realty Trust Incorporated Consumer Services 4140 0.39 0.4 -2.5 31.7 -0.78 -0.76 -1.53
2017-05-03 REXR Rexford Industrial Realty, Inc. Consumer Services 1860 0.23 0.23 0 24.83 -0.72 1.85 1.12
2017-05-03 INN Summit Hotel Properties, Inc. Consumer Services 1980 0.32 0.3 6.67 16.92 -0.53 0 -0.53
2017-05-03 TWO Two Harbors Investments Corp Consumer Services 3580 0.27 0.24 12.5 9.88 -0.1 -0.2 -0.3
2017-05-03 EQC Equity Commonwealth Consumer Services 3960 0.27 0.26 3.85 31.49 -1.19 0.03 -1.16
2017-05-03 NSA National Storage Affiliates Trust Consumer Services 997.98 0.29 0.3 -3.33 23.16 -2.24 0.52 -1.73
2017-05-03 NYMT New York Mortgage Trust, Inc. Consumer Services 729.22 0.14 0.15 -6.67 6.27 -1.42 -1.75 -3.14
2017-05-02 DEI Douglas Emmett, Inc. Consumer Services 6030 0.47 0.47 0 38.15 -0.21 -1.36 -1.57
2017-05-02 STAG Stag Industrial, Inc. Consumer Services 2490 0.41 0.4 2.5 26.52 -0.41 -1.85 -2.25
2017-05-02 ARI Apollo Commercial Real Estate Finance Consumer Services 1990 0.41 0.49 -16.33 18.82 -2.54 -2.23 -4.71
2017-05-02 RPAI Retail Properties of America, Inc. Consumer Services 3050 0.28 0.26 7.69 13.48 0.9 -2.45 -1.57
2017-05-02 CTRE CareTrust REIT, Inc. Consumer Services 1380 0.29 0.28 3.57 16.84 -1.58 -1.48 -3.04
2017-05-02 IRT Independence Realty Trust, Inc. Consumer Services 697.48 0.18 0.18 0 9.42 2.73 -3.18 -0.55
2017-05-02 EPR EPR Properties Consumer Services 5520 1.15 1.19 -3.36 72.6 -0.52 -2.81 -3.32
2017-05-02 NXRT NexPoint Residential Trust, Inc. Consumer Services 543.14 0.43 0.42 2.38 24.35 -1.62 2.71 1.05
2017-05-02 GEO Geo Group Inc (The) Consumer Services 3810 0.51 0.47 8.51 32 -3.03 -1 -4
2017-05-02 GPT Gramercy Property Trust Consumer Services 4630 0.51 0.51 0 27.8 -0.93 -1.22 -2.14
2017-05-02 RHP Ryman Hospitality Properties, Inc. Consumer Services 3320 1.22 1.17 4.27 63.75 -0.06 -0.88 -0.94
2017-05-02 ACRE Ares Commercial Real Estate Corporation Consumer Services 385.66 0.24 0.26 -7.69 13.42 -4.76 -2.38 -7.03
2017-05-02 AJX Great Ajax Corp. Consumer Services 265.94 0.46 0.47 -2.13 13.51 -0.22 1.7 1.48
2017-05-02 HCP HCP, Inc. Consumer Services 15070 0.51 0.48 6.25 31.26 -0.6 -2.11 -2.7
2017-05-02 RPT Ramco-Gershenson Properties Trust Consumer Services 1070 0.35 0.34 2.94 13.79 1.77 -2.97 -1.25
2017-05-02 AAT American Assets Trust, Inc. Consumer Services 1930 0.44 0.47 -6.38 43 -0.49 -3.37 -3.84
2017-05-02 EARN Ellington Residential Mortgage REIT Consumer Services 137.33 0.53 0.49 8.16 15.14 -0.26 0.66 0.4
2017-05-02 ANH Anworth Mortgage Asset Corporation Consumer Services 593.87 0.15 0 0 5.79 -1.86 2.07 0.17
2017-05-02 NNN National Retail Properties Consumer Services 5900 0.6 0.6 0 42.52 0.54 -1.81 -1.28
2017-05-02 HASI Hannon Armstrong Sustainable Infrastructure Capital, Inc. Consumer Services 1190 0.32 0.25 28 21.88 -1.04 -0.78 -1.81
2017-05-01 SKT Tanger Factory Outlet Centers, Inc. Consumer Services 2580 0.58 0.57 1.75 31.99 2.56 -6.85 -4.46
2017-05-01 APTS Preferred Apartment Communities, Inc. Consumer Services 501.42 0.36 0.34 5.88 15.99 13 -5.75 6.5
2017-05-01 VNO Vornado Realty Trust Consumer Services 17890 1.08 1.25 -13.6 77.81 0.04 0.04 0.08
2017-05-01 BRX Brixmor Property Group Inc. Consumer Services 5940 0.53 0.52 1.92 20.03 1.42 0.7 2.13
2017-05-01 QTS QTS Realty Trust, Inc. Consumer Services 2520 0.64 0.61 4.92 53.56 0.22 -4.99 -4.77
2017-05-01 EDR Education Realty Trust Inc. Consumer Services 2870 0.6 0.56 7.14 38.91 0.36 -2.39 -2.04
2017-05-01 NRZ New Residential Investment Corp. Consumer Services 5130 0.54 0.57 -5.26 17.06 2.52 -0.64 1.86
2017-05-01 WHLR Wheeler Real Estate Investment Trust, Inc. Consumer Services 83.9 0.31 0 0 13.1 -1.87 -6.56 -8.31
2017-05-01 ARE Alexandria Real Estate Equities, Inc. Consumer Services 10830 1.48 1.46 1.37 112.82 0.28 1.54 1.82
2017-05-01 SBAC SBA Communications Corporation Consumer Services 16040 0.31 0.22 40.91 127.25 0.6 1.36 1.97
2017-05-01 ARR ARMOUR Residential REIT, Inc. Consumer Services 990.3 0.69 0 0 24.41 1.41 2.38 3.82
2017-05-01 GGP GGP Inc. Consumer Services 21410 0.36 0.36 0 22.66 4.86 1.68 6.62
2017-05-01 CIM Chimera Investment Corporation Consumer Services 3600 0.51 0.58 -12.07 20.35 -0.25 -4.62 -4.85
2017-04-28 HST Host Hotels & Resorts, Inc. Consumer Services 13750 0.44 0.39 12.82 17.99 -6.5 1.45 -5.15
2017-04-28 VTR Ventas, Inc. Consumer Services 24500 1.04 1.02 1.96 64.01 -0.17 -0.06 -0.23
2017-04-28 WY Weyerhaeuser Company Consumer Services 25260 0.22 0.18 22.22 33.87 -2.39 -0.86 -3.23
2017-04-27 AIV Apartment Investment and Management Company Consumer Services 6980 0.58 0.58 0 44.45 -0.87 -1.6 -2.45
2017-04-27 AMT American Tower Corporation (REIT) Consumer Services 55620 1.58 1.51 4.64 125.77 2.41 0.14 2.55
2017-04-27 CUBE CubeSmart Consumer Services 4410 0.36 0.36 0 26.16 -3.29 -3.13 -6.32
2017-04-27 CXP Columbia Property Trust, Inc. Consumer Services 2700 0.28 0.27 3.7 22.48 -0.53 0.09 -0.44
2017-04-27 DX Dynex Capital, Inc. Consumer Services 347.39 0.15 0 0 7.2 -2.04 -3.89 -5.85
2017-04-27 MAC Macerich Company (The) Consumer Services 8330 0.87 0.84 3.57 62.71 0.97 -0.45 0.52
2017-04-27 TCO Taubman Centers, Inc. Consumer Services 3610 0.92 0.89 3.37 64.32 0.03 -2.75 -2.72
2017-04-27 GLPI Gaming and Leisure Properties, Inc. Consumer Services 7560 0.79 0.75 5.33 34.71 -0.12 0.26 0.14
2017-04-27 DLR Digital Realty Trust, Inc. Consumer Services 19100 1.5 1.47 2.04 113.29 1.86 1.37 3.25
2017-04-27 SPG Simon Property Group, Inc. Consumer Services 50180 2.74 2.76 -0.72 168 1.79 -1.63 0.13
2017-04-27 MGP MGM Growth Properties LLC Consumer Services 1670 0.49 0.48 2.08 28.58 1.35 0.14 1.49
2017-04-27 FPO First Potomac Realty Trust Consumer Services 649.99 0.23 0.22 4.55 10.98 -1.17 0.18 -0.99
2017-04-27 PEB Pebblebrook Hotel Trust Consumer Services 2270 0.54 0.49 10.2 31.2 -0.98 -4.62 -5.55
2017-04-27 COR CoreSite Realty Corporation Consumer Services 3690 1.13 1.07 5.61 97.3 4.75 0.57 5.34
2017-04-27 IRM Iron Mountain Incorporated Consumer Services 9140 0.48 0.51 -5.88 35.2 -2.49 -1.25 -3.71
2017-04-27 CUZ Cousins Properties Incorporated Consumer Services 3740 0.17 0.15 13.33 8.47 0.12 0.24 0.35
2017-04-27 SUI Sun Communities, Inc. Consumer Services 7130 1.1 1.07 2.8 84.63 1.29 -1.21 0.07
2017-04-27 ESS Essex Property Trust, Inc. Consumer Services 17300 2.94 2.89 1.73 241.44 0.17 1.25 1.43
2017-04-27 OFC Corporate Office Properties Trust Consumer Services 3550 0.47 0.46 2.17 32.73 -0.37 0.03 -0.33
2017-04-26 PCH Potlatch Corporation Consumer Services 1910 0.41 0.24 70.83 46.5 2.76 0.97 3.76
2017-04-26 PSA Public Storage Consumer Services 36970 2.34 2.43 -3.7 223.93 -0.71 -4.88 -5.56
2017-04-26 HTA Healthcare Trust of America, Inc. Consumer Services 6330 0.41 0.41 0 31.99 -0.84 0.56 -0.28
2017-04-26 KRC Kilroy Realty Corporation Consumer Services 7530 0.81 0.85 -4.71 71.79 -2.38 -1.42 -3.77
2017-04-26 EQIX Equinix, Inc. Consumer Services 33810 4.14 3.54 16.95 401 -1.37 2.48 1.08
2017-04-26 ESRT Empire State Realty Trust, Inc. Consumer Services 6710 0.21 0.2 5 21.33 -1.3 -1.97 -3.24
2017-04-26 EXR Extra Space Storage Inc Consumer Services 9670 1.03 0.98 5.1 79.9 0.39 -4.82 -4.45
2017-04-26 AVB AvalonBay Communities, Inc. Consumer Services 27000 2.09 2.11 -0.95 188.68 -0.32 -0.24 -0.55
2017-04-26 WPG Washington Prime Group Inc. Consumer Services 1530 0.42 0.4 5 9.24 2.55 -3.25 -0.78
2017-04-26 KRG Kite Realty Group Trust Consumer Services 1620 0.51 0.5 2 21.15 -0.94 0.09 -0.84
2017-04-26 DRE Duke Realty Corporation Consumer Services 10330 0.32 0.29 10.34 27.43 -0.11 1.93 1.82
2017-04-26 AGNC AGNC Investment Corp. Consumer Services 7230 0.64 0.58 10.34 20.72 -0.72 3.28 2.54
2017-04-26 CMO Capstead Mortgage Corporation Consumer Services 1050 0.2 0.17 17.65 10.94 0.64 3.56 4.23
2017-04-26 ROIC Retail Opportunity Investments Corp. Consumer Services 2270 0.28 0.27 3.7 21.1 -1.95 -0.43 -2.37
2017-04-26 KIM Kimco Realty Corporation Consumer Services 8320 0.37 0.37 0 21.45 -1.02 -3.64 -4.61
2017-04-26 MAA Mid-America Apartment Communities, Inc. Consumer Services 12490 1.46 1.44 1.39 101 -0.46 -2.97 -3.42
2017-04-25 LOAN Manhattan Bridge Capital, Inc Consumer Services 40.59 0.1 0 0 5.25 3.96 -0.95 2.97
2017-04-25 FR First Industrial Realty Trust, Inc. Consumer Services 3480 0.36 0.37 -2.7 27.99 0.47 1.29 1.76
2017-04-25 BXP Boston Properties, Inc. Consumer Services 19580 1.48 1.5 -1.33 133.97 0.89 -4.94 -4.1
2017-04-25 PEI Pennsylvania Real Estate Investment Trust Consumer Services 806.21 0.35 0.37 -5.41 14.59 -0.07 -1.78 -1.85
2017-04-25 O Realty Income Corporation Consumer Services 15540 0.76 0.75 1.33 60.5 0.41 -1.64 -1.23
2017-04-25 CHSP Chesapeake Lodging Trust Consumer Services 1490 0.41 0.36 13.89 24.7 1.19 1.38 2.58
2017-04-25 HIW Highwoods Properties, Inc. Consumer Services 5370 0.8 0.78 2.56 51.47 0.45 -0.21 0.23
2017-04-25 SIR Select Income REIT Consumer Services 2220 0.59 0.73 -19.18 24.85 -4.64 2.45 -2.3
2017-04-25 LPT Liberty Property Trust Consumer Services 6250 0.6 0.58 3.45 40.9 0.27 0.17 0.44
2017-04-25 BXMT Capital Trust, Inc. Consumer Services 3030 0.55 0.58 -5.17 30.52 -0.16 2.2 2.03
2017-04-25 PSB PS Business Parks, Inc. Consumer Services 3620 1.52 1.41 7.8 121.57 0.42 0.85 1.27
2017-04-25 HT Hersha Hospitality Trust Consumer Services 799.97 0.3 0.23 30.43 18.79 0.64 2.29 2.95
2017-04-25 DDR DDR Corp. Consumer Services 3440 0.3 0.29 3.45 11.99 -1.88 -6.26 -8.02
2017-04-25 EQR Equity Residential Consumer Services 24880 0.74 0.74 0 64.93 1.14 0.54 1.68
2017-04-24 ACC American Campus Communities Inc Consumer Services 6460 0.62 0.62 0 49.3 -0.6 -1.64 -2.24
2017-04-24 ADC Agree Realty Corporation Consumer Services 1260 0.65 0.65 0 50.02 -2.08 0.74 -1.35
2017-04-24 AKR Acadia Realty Trust Consumer Services 2420 0.4 0.37 8.11 30.76 -2.1 -0.03 -2.13
2017-04-24 UDR United Dominion Realty Trust, Inc. Consumer Services 10700 0.45 0.45 0 35.97 -0.66 3.03 2.35
2017-04-24 CCI Crown Castle International Corporation Consumer Services 37090 1.24 1.16 6.9 94.73 -0.84 -0.78 -1.61
2017-04-24 BOXC Brookfield Canada Office Properties Consumer Services 646.28 0.32 0 0 24.12 0.04 -0.25 -0.21
2017-04-24 WRI Weingarten Realty Investors Consumer Services 4110 0.61 0.6 1.67 34.39 -1.83 -1.54 -3.34